createdAt,value
2017-04-11T00:00:58.018Z,6.91
2017-04-11T00:02:09.016Z,6.98
2017-04-11T00:03:20.023Z,6.97
2017-04-11T00:04:31.032Z,6.86
2017-04-11T00:05:42.040Z,6.91
2017-04-11T00:06:53.232Z,6.8
2017-04-11T00:08:04.243Z,6.85
2017-04-11T00:09:15.255Z,6.76
2017-04-11T00:10:26.294Z,6.79
2017-04-11T00:11:37.340Z,6.82
2017-04-11T00:12:48.334Z,6.73
2017-04-11T00:13:59.537Z,6.82
2017-04-11T00:15:10.734Z,6.72
2017-04-11T00:16:21.730Z,6.79
2017-04-11T00:17:32.736Z,6.72
2017-04-11T00:18:43.731Z,6.78
2017-04-11T00:19:54.928Z,6.65
2017-04-11T00:21:05.920Z,6.58
2017-04-11T00:22:17.112Z,6.64
2017-04-11T00:23:28.108Z,6.64
2017-04-11T00:24:39.505Z,6.61
2017-04-11T00:25:50.703Z,6.62
2017-04-11T00:27:01.697Z,6.72
2017-04-11T00:28:12.891Z,6.62
2017-04-11T00:29:24.082Z,6.65
2017-04-11T00:30:35.280Z,6.67
2017-04-11T00:31:46.282Z,6.68
2017-04-11T00:32:57.283Z,6.64
2017-04-11T00:34:08.491Z,6.65
2017-04-11T00:35:19.692Z,6.61
2017-04-11T00:36:30.691Z,6.68
2017-04-11T00:37:41.690Z,6.64
2017-04-11T00:38:52.693Z,6.65
2017-04-11T00:40:03.680Z,6.65
2017-04-11T00:41:14.683Z,6.62
2017-04-11T00:42:25.692Z,6.57
2017-04-11T00:43:36.954Z,6.55
2017-04-11T00:44:47.950Z,6.64
2017-04-11T00:45:58.944Z,6.64
2017-04-11T00:47:09.946Z,6.54
2017-04-11T00:48:21.185Z,6.55
2017-04-11T00:49:32.194Z,6.58
2017-04-11T00:50:43.400Z,6.58
2017-04-11T00:51:54.392Z,6.52
2017-04-11T00:53:05.412Z,6.55
2017-04-11T00:54:16.623Z,6.58
2017-04-11T00:55:27.827Z,6.62
2017-04-11T00:56:38.836Z,6.46
2017-04-11T00:57:50.094Z,6.55
2017-04-11T00:59:01.081Z,6.57
2017-04-11T01:00:12.087Z,6.51
2017-04-11T01:01:23.078Z,6.57
2017-04-11T01:02:34.080Z,6.58
2017-04-11T01:03:45.070Z,6.52
2017-04-11T01:04:56.268Z,6.51
2017-04-11T01:06:07.271Z,6.49
2017-04-11T01:07:18.261Z,6.44
2017-04-11T01:08:29.261Z,6.47
2017-04-11T01:09:40.261Z,6.52
2017-04-11T01:10:51.286Z,6.43
2017-04-11T01:12:02.286Z,6.46
2017-04-11T01:13:13.662Z,6.52
2017-04-11T01:14:24.660Z,6.43
2017-04-11T01:15:35.661Z,6.46
2017-04-11T01:16:46.661Z,6.42
2017-04-11T01:17:57.654Z,6.36
2017-04-11T01:19:08.662Z,6.39
2017-04-11T01:20:19.657Z,6.36
2017-04-11T01:21:30.667Z,6.4
2017-04-11T01:22:41.668Z,6.39
2017-04-11T01:23:52.877Z,6.33
2017-04-11T01:25:04.077Z,6.34
2017-04-11T01:26:15.089Z,6.42
2017-04-11T01:27:26.089Z,6.34
2017-04-11T01:28:37.147Z,6.37
2017-04-11T01:29:48.146Z,6.31
2017-04-11T01:30:59.205Z,6.34
2017-04-11T01:32:10.208Z,6.36
2017-04-11T01:33:21.212Z,6.36
2017-04-11T01:34:32.202Z,6.37
2017-04-11T01:35:43.207Z,6.39
2017-04-11T01:36:54.215Z,6.34
2017-04-11T01:38:05.408Z,6.36
2017-04-11T01:39:16.405Z,6.36
2017-04-11T01:40:27.602Z,6.29
2017-04-11T01:41:38.594Z,6.26
2017-04-11T01:42:49.796Z,6.28
2017-04-11T01:44:00.804Z,6.29
2017-04-11T01:45:11.831Z,6.26
2017-04-11T01:46:23.024Z,6.26
2017-04-11T01:47:34.023Z,6.26
2017-04-11T01:48:45.223Z,6.24
2017-04-11T01:49:56.216Z,6.24
2017-04-11T01:51:07.422Z,6.18
2017-04-11T01:52:18.632Z,6.2
2017-04-11T01:53:29.846Z,6.17
2017-04-11T01:54:40.851Z,6.25
2017-04-11T01:55:51.847Z,6.29
2017-04-11T01:57:02.845Z,6.21
2017-04-11T01:58:13.852Z,6.26
2017-04-11T01:59:24.862Z,6.29
2017-04-11T02:00:36.082Z,6.25
2017-04-11T02:01:47.085Z,6.2
2017-04-11T02:02:58.286Z,6.25
2017-04-11T02:04:09.297Z,6.26
2017-04-11T02:05:20.355Z,6.25
2017-04-11T02:06:31.555Z,6.26
2017-04-11T02:07:42.763Z,6.25
2017-04-11T02:08:53.971Z,6.25
2017-04-11T02:10:04.984Z,6.21
2017-04-11T02:11:16.038Z,6.21
2017-04-11T02:12:27.037Z,6.18
2017-04-11T02:13:38.246Z,6.17
2017-04-11T02:14:49.497Z,6.21
2017-04-11T02:16:00.704Z,6.14
2017-04-11T02:17:11.901Z,6.2
2017-04-11T02:18:22.901Z,6.29
2017-04-11T02:19:33.894Z,6.25
2017-04-11T02:20:45.092Z,6.25
2017-04-11T02:21:56.085Z,6.17
2017-04-11T02:23:07.094Z,6.2
2017-04-11T02:24:18.110Z,6.18
2017-04-11T02:25:29.114Z,6.2
2017-04-11T02:26:40.121Z,6.18
2017-04-11T02:27:51.121Z,6.17
2017-04-11T02:29:02.127Z,6.26
2017-04-11T02:30:13.131Z,6.28
2017-04-11T02:31:24.179Z,6.2
2017-04-11T02:32:35.201Z,6.2
2017-04-11T02:33:46.420Z,6.24
2017-04-11T02:34:57.423Z,6.25
2017-04-11T02:36:08.431Z,6.21
2017-04-11T02:37:19.432Z,6.24
2017-04-11T02:38:30.432Z,6.24
2017-04-11T02:39:41.436Z,6.25
2017-04-11T02:40:52.424Z,6.31
2017-04-11T02:42:03.420Z,6.24
2017-04-11T02:43:14.423Z,6.25
2017-04-11T02:44:25.628Z,6.26
2017-04-11T02:45:36.631Z,6.28
2017-04-11T02:46:47.875Z,6.26
2017-04-11T02:47:58.880Z,6.21
2017-04-11T02:49:09.894Z,6.29
2017-04-11T02:50:20.901Z,6.33
2017-04-11T02:51:31.912Z,6.25
2017-04-11T02:52:42.911Z,6.36
2017-04-11T02:53:53.899Z,6.28
2017-04-11T02:55:04.880Z,6.29
2017-04-11T02:56:16.080Z,6.25
2017-04-11T02:57:27.077Z,6.37
2017-04-11T02:58:38.070Z,6.24
2017-04-11T02:59:49.469Z,6.28
2017-04-11T03:01:00.514Z,6.26
2017-04-11T03:02:11.525Z,6.24
2017-04-11T03:03:22.727Z,6.24
2017-04-11T03:04:33.928Z,6.17
2017-04-11T03:05:44.966Z,6.2
2017-04-11T03:06:55.963Z,6.25
2017-04-11T03:08:06.968Z,6.26
2017-04-11T03:09:18.171Z,6.17
2017-04-11T03:10:29.171Z,6.21
2017-04-11T03:11:40.175Z,6.28
2017-04-11T03:12:51.224Z,6.18
2017-04-11T03:14:02.223Z,6.25
2017-04-11T03:15:13.228Z,6.21
2017-04-11T03:16:24.281Z,6.26
2017-04-11T03:17:35.290Z,6.24
2017-04-11T03:18:46.300Z,6.21
2017-04-11T03:19:57.295Z,6.21
2017-04-11T03:21:08.293Z,6.24
2017-04-11T03:22:19.492Z,6.15
2017-04-11T03:23:30.502Z,6.25
2017-04-11T03:24:41.506Z,6.28
2017-04-11T03:25:52.503Z,6.25
2017-04-11T03:27:03.696Z,6.25
2017-04-11T03:28:14.702Z,6.26
2017-04-11T03:29:25.712Z,6.26
2017-04-11T03:30:36.922Z,6.24
2017-04-11T03:31:48.191Z,6.09
2017-04-11T03:32:59.195Z,6.2
2017-04-11T03:34:10.207Z,6.24
2017-04-11T03:35:21.204Z,6.2
2017-04-11T03:36:32.401Z,6.14
2017-04-11T03:37:43.411Z,6.18
2017-04-11T03:38:54.415Z,6.2
2017-04-11T03:40:05.447Z,6.13
2017-04-11T03:41:16.439Z,6.21
2017-04-11T03:42:27.437Z,6.13
2017-04-11T03:43:38.440Z,6.15
2017-04-11T03:44:49.429Z,6.1
2017-04-11T03:46:00.426Z,6.13
2017-04-11T03:47:11.511Z,6.14
2017-04-11T03:48:22.513Z,6.15
2017-04-11T03:49:33.519Z,6.18
2017-04-11T03:50:44.517Z,6.14
2017-04-11T03:51:55.521Z,6.25
2017-04-11T03:53:06.518Z,6.2
2017-04-11T03:54:17.519Z,6.2
2017-04-11T03:55:28.522Z,6.2
2017-04-11T03:56:39.521Z,6.2
2017-04-11T03:57:50.519Z,6.18
2017-04-11T03:59:01.519Z,6.1
2017-04-11T04:00:12.718Z,6.21
2017-04-11T04:01:23.745Z,6.17
2017-04-11T04:02:34.947Z,6.07
2017-04-11T04:03:45.995Z,6.13
2017-04-11T04:04:57.206Z,6.2
2017-04-11T04:06:08.206Z,6.15
2017-04-11T04:07:19.192Z,6.15
2017-04-11T04:08:30.191Z,6.15
2017-04-11T04:09:41.190Z,6.15
2017-04-11T04:10:52.392Z,6.09
2017-04-11T04:12:03.590Z,6.15
2017-04-11T04:13:14.596Z,6.13
2017-04-11T04:14:25.589Z,6.14
2017-04-11T04:15:36.599Z,6.09
2017-04-11T04:16:47.609Z,6.15
2017-04-11T04:17:58.655Z,6.13
2017-04-11T04:19:09.661Z,6.1
2017-04-11T04:20:20.660Z,6.09
2017-04-11T04:21:31.846Z,6.13
2017-04-11T04:22:42.838Z,6.02
2017-04-11T04:23:53.830Z,6.03
2017-04-11T04:25:04.834Z,6.07
2017-04-11T04:26:15.836Z,6.05
2017-04-11T04:27:26.830Z,6.09
2017-04-11T04:28:38.077Z,6.1
2017-04-11T04:29:49.083Z,6.07
2017-04-11T04:31:00.081Z,6.13
2017-04-11T04:32:11.113Z,6.07
2017-04-11T04:33:22.109Z,6.07
2017-04-11T04:34:33.117Z,6.07
2017-04-11T04:35:44.129Z,6.13
2017-04-11T04:36:55.128Z,6.03
2017-04-11T04:38:06.128Z,6.1
2017-04-11T04:39:17.329Z,6.07
2017-04-11T04:40:28.325Z,6.15
2017-04-11T04:41:39.327Z,6.13
2017-04-11T04:42:50.526Z,6.17
2017-04-11T04:44:01.570Z,6.17
2017-04-11T04:45:12.566Z,6.13
2017-04-11T04:46:23.768Z,6.18
2017-04-11T04:47:34.961Z,6.13
2017-04-11T04:48:45.950Z,6.13
2017-04-11T04:49:56.946Z,6.25
2017-04-11T04:51:07.953Z,6.18
2017-04-11T04:52:18.960Z,6.14
2017-04-11T04:53:29.955Z,6.25
2017-04-11T04:54:41.212Z,6.25
2017-04-11T04:55:52.208Z,6.25
2017-04-11T04:57:03.199Z,6.24
2017-04-11T04:58:14.400Z,6.18
2017-04-11T04:59:25.605Z,6.2
2017-04-11T05:00:37.008Z,6.24
2017-04-11T05:01:48.001Z,6.2
2017-04-11T05:02:58.987Z,6.2
2017-04-11T05:04:09.987Z,6.24
2017-04-11T05:05:21.039Z,6.28
2017-04-11T05:06:32.032Z,6.31
2017-04-11T05:07:43.039Z,6.33
2017-04-11T05:08:54.461Z,6.36
2017-04-11T05:10:05.465Z,6.34
2017-04-11T05:11:16.472Z,6.31
2017-04-11T05:12:27.469Z,6.39
2017-04-11T05:13:38.473Z,6.36
2017-04-11T05:14:49.476Z,6.39
2017-04-11T05:16:00.679Z,6.43
2017-04-11T05:17:11.682Z,6.44
2017-04-11T05:18:22.672Z,6.43
2017-04-11T05:19:33.678Z,6.43
2017-04-11T05:20:44.692Z,6.43
2017-04-11T05:21:55.891Z,6.44
2017-04-11T05:23:06.900Z,6.52
2017-04-11T05:24:18.100Z,6.47
2017-04-11T05:25:29.356Z,6.46
2017-04-11T05:26:40.355Z,6.52
2017-04-11T05:27:51.367Z,6.52
2017-04-11T05:29:02.364Z,6.54
2017-04-11T05:30:13.562Z,6.57
2017-04-11T05:31:24.572Z,6.57
2017-04-11T05:32:35.574Z,6.55
2017-04-11T05:33:46.779Z,6.62
2017-04-11T05:34:57.779Z,6.52
2017-04-11T05:36:08.776Z,6.61
2017-04-11T05:37:19.982Z,6.57
2017-04-11T05:38:31.029Z,6.55
2017-04-11T05:39:42.027Z,6.68
2017-04-11T05:40:53.019Z,6.61
2017-04-11T05:42:04.022Z,6.55
2017-04-11T05:43:15.022Z,6.61
2017-04-11T05:44:26.030Z,6.72
2017-04-11T05:45:37.029Z,6.62
2017-04-11T05:46:48.070Z,6.67
2017-04-11T05:47:59.071Z,6.68
2017-04-11T05:49:10.078Z,6.73
2017-04-11T05:50:21.269Z,6.68
2017-04-11T05:51:32.326Z,6.76
2017-04-11T05:52:43.345Z,6.76
2017-04-11T05:53:54.542Z,6.85
2017-04-11T05:55:05.561Z,6.72
2017-04-11T05:56:16.611Z,6.9
2017-04-11T05:57:27.607Z,6.7
2017-04-11T05:58:38.618Z,6.72
2017-04-11T05:59:49.618Z,6.8
2017-04-11T06:01:00.604Z,6.85
2017-04-11T06:02:12.013Z,6.83
2017-04-11T06:03:23.010Z,6.83
2017-04-11T06:04:34.014Z,6.79
2017-04-11T06:05:45.008Z,6.79
2017-04-11T06:06:56.468Z,6.79
2017-04-11T06:08:07.664Z,6.91
2017-04-11T06:09:18.669Z,6.88
2017-04-11T06:10:29.696Z,6.85
2017-04-11T06:11:40.701Z,6.97
2017-04-11T06:12:51.708Z,6.91
2017-04-11T06:14:02.706Z,6.93
2017-04-11T06:15:13.901Z,6.93
2017-04-11T06:16:24.914Z,6.98
2017-04-11T06:17:35.912Z,7.08
2017-04-11T06:18:46.916Z,6.97
2017-04-11T06:19:57.910Z,7.05
2017-04-11T06:21:09.113Z,7.08
2017-04-11T06:22:20.128Z,7.11
2017-04-11T06:23:31.586Z,7.13
2017-04-11T06:24:42.575Z,7.16
2017-04-11T06:25:53.566Z,7.12
2017-04-11T06:27:04.571Z,7.22
2017-04-11T06:28:15.565Z,7.16
2017-04-11T06:29:26.575Z,7.19
2017-04-11T06:30:37.771Z,7.19
2017-04-11T06:31:48.781Z,7.21
2017-04-11T06:33:00.032Z,7.26
2017-04-11T06:34:11.024Z,7.23
2017-04-11T06:35:22.225Z,7.22
2017-04-11T06:36:33.423Z,7.26
2017-04-11T06:37:44.433Z,7.29
2017-04-11T06:38:55.485Z,7.23
2017-04-11T06:40:06.489Z,7.26
2017-04-11T06:41:17.693Z,7.22
2017-04-11T06:42:28.691Z,7.22
2017-04-11T06:43:39.894Z,7.3
2017-04-11T06:44:51.099Z,7.26
2017-04-11T06:46:02.106Z,7.33
2017-04-11T06:47:13.115Z,7.37
2017-04-11T06:48:24.178Z,7.36
2017-04-11T06:49:35.196Z,7.36
2017-04-11T06:50:46.194Z,7.45
2017-04-11T06:51:57.179Z,7.4
2017-04-11T06:53:08.194Z,7.41
2017-04-11T06:54:19.411Z,7.4
2017-04-11T06:55:30.611Z,7.44
2017-04-11T06:56:41.614Z,7.47
2017-04-11T06:57:52.610Z,7.41
2017-04-11T06:59:03.609Z,7.52
2017-04-11T07:00:14.604Z,7.45
2017-04-11T07:01:25.605Z,7.49
2017-04-11T07:02:36.621Z,7.49
2017-04-11T07:03:47.874Z,7.41
2017-04-11T07:04:58.876Z,7.45
2017-04-11T07:06:10.072Z,7.41
2017-04-11T07:07:21.270Z,7.49
2017-04-11T07:08:32.308Z,7.59
2017-04-11T07:09:43.317Z,7.56
2017-04-11T07:10:54.325Z,7.56
2017-04-11T07:12:05.339Z,7.56
2017-04-11T07:13:16.341Z,7.55
2017-04-11T07:14:27.383Z,7.61
2017-04-11T07:15:38.375Z,7.64
2017-04-11T07:16:49.376Z,7.59
2017-04-11T07:18:00.376Z,7.59
2017-04-11T07:19:11.385Z,7.63
2017-04-11T07:20:22.578Z,7.64
2017-04-11T07:21:33.572Z,7.63
2017-04-11T07:22:44.586Z,7.61
2017-04-11T07:23:55.591Z,7.59
2017-04-11T07:25:06.594Z,7.63
2017-04-11T07:26:17.591Z,7.7
2017-04-11T07:27:28.620Z,7.68
2017-04-11T07:28:39.818Z,7.74
2017-04-11T07:29:51.300Z,7.75
2017-04-11T07:31:02.301Z,7.8
2017-04-11T07:32:13.304Z,7.75
2017-04-11T07:33:24.301Z,7.83
2017-04-11T07:34:35.330Z,7.89
2017-04-11T07:35:46.334Z,7.86
2017-04-11T07:36:57.333Z,7.92
2017-04-11T07:38:08.332Z,7.93
2017-04-11T07:39:19.329Z,8.01
2017-04-11T07:40:30.539Z,8.04
2017-04-11T07:41:41.533Z,8.07
2017-04-11T07:42:52.521Z,8.1
2017-04-11T07:44:03.711Z,8.16
2017-04-11T07:45:14.784Z,8.26
2017-04-11T07:46:25.781Z,8.26
2017-04-11T07:47:36.982Z,8.31
2017-04-11T07:48:47.989Z,8.32
2017-04-11T07:49:59.000Z,8.47
2017-04-11T07:51:10.041Z,8.43
2017-04-11T07:52:21.263Z,8.47
2017-04-11T07:53:32.252Z,8.52
2017-04-11T07:54:43.451Z,8.58
2017-04-11T07:55:54.500Z,8.67
2017-04-11T07:57:05.495Z,8.76
2017-04-11T07:58:16.499Z,8.94
2017-04-11T07:59:27.507Z,9.19
2017-04-11T08:00:38.509Z,9.42
2017-04-11T08:01:49.518Z,9.57
2017-04-11T08:03:00.516Z,9.29
2017-04-11T08:04:11.513Z,9.09
2017-04-11T08:05:22.517Z,9.05
2017-04-11T08:06:33.728Z,9.03
2017-04-11T08:07:44.940Z,9.03
2017-04-11T08:08:55.943Z,9.01
2017-04-11T08:10:06.954Z,8.95
2017-04-11T08:11:17.949Z,8.97
2017-04-11T08:12:28.954Z,9.04
2017-04-11T08:13:39.953Z,9.03
2017-04-11T08:14:50.966Z,9.03
2017-04-11T08:16:02.170Z,9.12
2017-04-11T08:17:13.223Z,9.09
2017-04-11T08:18:24.425Z,9.04
2017-04-11T08:19:35.439Z,9.12
2017-04-11T08:20:46.446Z,9.11
2017-04-11T08:21:57.443Z,9.16
2017-04-11T08:23:08.653Z,9.19
2017-04-11T08:24:19.663Z,9.14
2017-04-11T08:25:30.670Z,9.17
2017-04-11T08:26:41.720Z,9.12
2017-04-11T08:27:52.931Z,9.16
2017-04-11T08:29:03.988Z,9.2
2017-04-11T08:30:15.185Z,9.29
2017-04-11T08:31:26.235Z,9.35
2017-04-11T08:32:37.236Z,9.39
2017-04-11T08:33:48.436Z,9.41
2017-04-11T08:34:59.453Z,9.41
2017-04-11T08:36:10.455Z,9.39
2017-04-11T08:37:21.718Z,9.47
2017-04-11T08:38:32.726Z,9.39
2017-04-11T08:39:43.753Z,9.47
2017-04-11T08:40:54.753Z,9.53
2017-04-11T08:42:05.753Z,9.52
2017-04-11T08:43:16.753Z,9.67
2017-04-11T08:44:27.806Z,9.75
2017-04-11T08:45:38.813Z,9.9
2017-04-11T08:46:50.019Z,9.95
2017-04-11T08:48:01.233Z,10.11
2017-04-11T08:49:12.254Z,10.23
2017-04-11T08:50:23.264Z,10.2
2017-04-11T08:51:34.276Z,10.26
2017-04-11T08:52:45.274Z,10.28
2017-04-11T08:53:56.279Z,10.29
2017-04-11T08:55:07.270Z,10.32
2017-04-11T08:56:18.271Z,10.38
2017-04-11T08:57:29.289Z,10.41
2017-04-11T08:58:40.281Z,10.52
2017-04-11T08:59:51.293Z,10.61
2017-04-11T09:01:02.508Z,10.61
2017-04-11T09:02:13.521Z,10.69
2017-04-11T09:03:24.575Z,10.65
2017-04-11T09:04:35.563Z,10.73
2017-04-11T09:05:46.569Z,10.73
2017-04-11T09:06:57.569Z,10.76
2017-04-11T09:08:08.569Z,10.8
2017-04-11T09:09:19.577Z,10.76
2017-04-11T09:10:30.578Z,10.9
2017-04-11T09:11:41.596Z,11.08
2017-04-11T09:12:52.602Z,11.48
2017-04-11T09:14:03.652Z,11.81
2017-04-11T09:15:14.866Z,12.25
2017-04-11T09:16:25.884Z,12.44
2017-04-11T09:17:36.881Z,12.53
2017-04-11T09:18:47.912Z,12.62
2017-04-11T09:19:58.908Z,12.65
2017-04-11T09:21:09.912Z,12.71
2017-04-11T09:22:20.930Z,12.69
2017-04-11T09:23:31.942Z,12.59
2017-04-11T09:24:43.005Z,12.52
2017-04-11T09:25:54.209Z,12.29
2017-04-11T09:27:05.431Z,12.4
2017-04-11T09:28:16.650Z,12.48
2017-04-11T09:29:27.652Z,12.45
2017-04-11T09:30:38.660Z,12.38
2017-04-11T09:31:49.871Z,12.38
2017-04-11T09:33:00.876Z,12.31
2017-04-11T09:34:11.886Z,12.26
2017-04-11T09:35:22.942Z,12.41
2017-04-11T09:36:33.951Z,12.76
2017-04-11T09:37:44.964Z,13.07
2017-04-11T09:38:55.967Z,13.25
2017-04-11T09:40:07.234Z,13.44
2017-04-11T09:41:18.453Z,13.63
2017-04-11T09:42:29.467Z,13.66
2017-04-11T09:43:40.472Z,13.86
2017-04-11T09:44:51.477Z,14.02
2017-04-11T09:46:02.488Z,14.31
2017-04-11T09:47:13.500Z,14.48
2017-04-11T09:48:24.730Z,14.66
2017-04-11T09:49:35.753Z,14.7
2017-04-11T09:50:47.020Z,14.82
2017-04-11T09:51:58.039Z,14.85
2017-04-11T09:53:09.059Z,14.89
2017-04-11T09:54:20.070Z,15
2017-04-11T09:55:31.084Z,15.15
2017-04-11T09:56:42.302Z,15.18
2017-04-11T09:57:53.322Z,15.22
2017-04-11T09:59:04.548Z,15.19
2017-04-11T10:00:15.769Z,15.2
2017-04-11T10:01:27.024Z,15.25
2017-04-11T10:02:38.037Z,15.44
2017-04-11T10:03:49.056Z,15.49
2017-04-11T10:05:00.068Z,15.56
2017-04-11T10:06:11.092Z,15.92
2017-04-11T10:07:22.115Z,16.21
2017-04-11T10:08:33.141Z,16.36
2017-04-11T10:09:44.154Z,16.27
2017-04-11T10:10:55.167Z,16.22
2017-04-11T10:12:06.389Z,15.95
2017-04-11T10:13:17.409Z,15.77
2017-04-11T10:14:28.475Z,15.56
2017-04-11T10:15:39.496Z,15.59
2017-04-11T10:16:50.513Z,15.4
2017-04-11T10:18:01.530Z,15.08
2017-04-11T10:19:12.559Z,14.74
2017-04-11T10:20:23.578Z,14.57
2017-04-11T10:21:34.589Z,14.23
2017-04-11T10:22:45.670Z,14.19
2017-04-11T10:23:56.687Z,14.16
2017-04-11T10:25:07.709Z,14.13
2017-04-11T10:26:18.716Z,14.15
2017-04-11T10:27:29.745Z,14.26
2017-04-11T10:28:40.745Z,14.44
2017-04-11T10:29:51.773Z,14.63
2017-04-11T10:31:02.792Z,14.74
2017-04-11T10:32:13.804Z,14.87
2017-04-11T10:33:25.076Z,14.8
2017-04-11T10:34:36.291Z,14.94
2017-04-11T10:35:47.528Z,14.82
2017-04-11T10:36:58.543Z,14.83
2017-04-11T10:38:09.758Z,14.7
2017-04-11T10:39:20.982Z,14.77
2017-04-11T10:40:31.998Z,14.74
2017-04-11T10:41:43.010Z,14.6
2017-04-11T10:42:54.018Z,14.6
2017-04-11T10:44:05.286Z,14.45
2017-04-11T10:45:16.297Z,14.2
2017-04-11T10:46:27.543Z,13.87
2017-04-11T10:47:38.753Z,13.75
2017-04-11T10:48:49.982Z,13.76
2017-04-11T10:50:01.253Z,13.75
2017-04-11T10:51:12.269Z,13.57
2017-04-11T10:52:23.276Z,13.44
2017-04-11T10:53:34.485Z,13.32
2017-04-11T10:54:45.688Z,13.39
2017-04-11T10:55:56.708Z,13.42
2017-04-11T10:57:07.711Z,13.32
2017-04-11T10:58:18.912Z,13.28
2017-04-11T10:59:29.921Z,13.25
2017-04-11T11:00:40.951Z,13.16
2017-04-11T11:01:52.210Z,13.29
2017-04-11T11:03:03.204Z,13.97
2017-04-11T11:04:14.215Z,13.72
2017-04-11T11:05:25.435Z,13.47
2017-04-11T11:06:36.441Z,13.4
2017-04-11T11:07:47.646Z,13.35
2017-04-11T11:08:58.652Z,13.42
2017-04-11T11:10:09.657Z,13.32
2017-04-11T11:11:20.917Z,13.13
2017-04-11T11:12:31.923Z,13.01
2017-04-11T11:13:42.945Z,12.81
2017-04-11T11:14:53.955Z,12.89
2017-04-11T11:16:04.958Z,13.02
2017-04-11T11:17:15.961Z,13.13
2017-04-11T11:18:26.972Z,13.19
2017-04-11T11:19:37.987Z,13.19
2017-04-11T11:20:48.987Z,13.16
2017-04-11T11:22:00.040Z,13.1
2017-04-11T11:23:11.256Z,13.03
2017-04-11T11:24:22.265Z,13.06
2017-04-11T11:25:33.263Z,13.13
2017-04-11T11:26:44.265Z,13.29
2017-04-11T11:27:55.469Z,13.42
2017-04-11T11:29:06.482Z,13.63
2017-04-11T11:30:17.480Z,13.73
2017-04-11T11:31:28.488Z,14.01
2017-04-11T11:32:39.499Z,14.21
2017-04-11T11:33:50.517Z,14.46
2017-04-11T11:35:01.729Z,14.57
2017-04-11T11:36:12.939Z,14.64
2017-04-11T11:37:24.160Z,14.6
2017-04-11T11:38:35.173Z,14.6
2017-04-11T11:39:46.179Z,14.6
2017-04-11T11:40:57.184Z,14.52
2017-04-11T11:42:08.190Z,14.44
2017-04-11T11:43:19.258Z,14.48
2017-04-11T11:44:30.475Z,14.49
2017-04-11T11:45:41.475Z,14.45
2017-04-11T11:46:52.717Z,14.28
2017-04-11T11:48:03.726Z,14.16
2017-04-11T11:49:14.736Z,14.15
2017-04-11T11:50:25.946Z,14.52
2017-04-11T11:51:36.952Z,14.45
2017-04-11T11:52:47.968Z,14.52
2017-04-11T11:53:59.233Z,14.86
2017-04-11T11:55:10.241Z,15.23
2017-04-11T11:56:21.249Z,15.52
2017-04-11T11:57:32.459Z,15.96
2017-04-11T11:58:43.461Z,16.17
2017-04-11T11:59:54.466Z,16.11
2017-04-11T12:01:05.676Z,16.02
2017-04-11T12:02:16.703Z,16.04
2017-04-11T12:03:27.717Z,16.02
2017-04-11T12:04:38.987Z,16.14
2017-04-11T12:05:50.206Z,16.29
2017-04-11T12:07:01.204Z,16.4
2017-04-11T12:08:12.231Z,16.32
2017-04-11T12:09:23.266Z,16.29
2017-04-11T12:10:34.271Z,16.34
2017-04-11T12:11:45.289Z,16.34
2017-04-11T12:12:56.509Z,16.11
2017-04-11T12:14:07.530Z,16.08
2017-04-11T12:15:18.543Z,15.89
2017-04-11T12:16:29.559Z,15.81
2017-04-11T12:17:40.564Z,15.89
2017-04-11T12:18:51.770Z,15.92
2017-04-11T12:20:02.827Z,15.95
2017-04-11T12:21:13.834Z,15.99
2017-04-11T12:22:24.894Z,15.89
2017-04-11T12:23:35.913Z,15.7
2017-04-11T12:24:47.134Z,15.44
2017-04-11T12:25:58.147Z,15.18
2017-04-11T12:27:09.162Z,14.97
2017-04-11T12:28:20.177Z,14.83
2017-04-11T12:29:31.174Z,14.79
2017-04-11T12:30:42.437Z,14.57
2017-04-11T12:31:53.452Z,14.41
2017-04-11T12:33:04.476Z,14.28
2017-04-11T12:34:15.486Z,14.31
2017-04-11T12:35:26.508Z,14.34
2017-04-11T12:36:37.514Z,14.3
2017-04-11T12:37:48.521Z,14.28
2017-04-11T12:38:59.745Z,14.23
2017-04-11T12:40:10.986Z,14.24
2017-04-11T12:41:22.190Z,14.16
2017-04-11T12:42:33.198Z,14.05
2017-04-11T12:43:44.205Z,13.97
2017-04-11T12:44:55.220Z,13.84
2017-04-11T12:46:06.673Z,13.68
2017-04-11T12:47:17.695Z,13.54
2017-04-11T12:48:28.702Z,13.63
2017-04-11T12:49:39.710Z,13.54
2017-04-11T12:50:50.715Z,13.55
2017-04-11T12:52:01.915Z,13.57
2017-04-11T12:53:12.929Z,13.6
2017-04-11T12:54:23.945Z,13.58
2017-04-11T12:55:34.943Z,13.42
2017-04-11T12:56:45.946Z,13.42
2017-04-11T12:57:56.953Z,13.44
2017-04-11T12:59:08.177Z,13.4
2017-04-11T13:00:19.187Z,13.35
2017-04-11T13:01:30.190Z,13.4
2017-04-11T13:02:41.389Z,13.42
2017-04-11T13:03:52.400Z,13.4
2017-04-11T13:05:03.399Z,13.48
2017-04-11T13:06:14.832Z,13.58
2017-04-11T13:07:26.031Z,13.55
2017-04-11T13:08:37.031Z,13.47
2017-04-11T13:09:48.036Z,13.53
2017-04-11T13:10:59.655Z,13.57
2017-04-11T13:12:10.663Z,13.51
2017-04-11T13:13:21.663Z,13.39
2017-04-11T13:14:32.669Z,13.37
2017-04-11T13:15:43.680Z,13.28
2017-04-11T13:16:54.942Z,13.39
2017-04-11T13:18:05.946Z,13.39
2017-04-11T13:19:16.951Z,13.39
2017-04-11T13:20:28.164Z,13.44
2017-04-11T13:21:39.375Z,13.42
2017-04-11T13:22:50.369Z,13.42
2017-04-11T13:24:01.579Z,13.4
2017-04-11T13:25:12.593Z,13.39
2017-04-11T13:26:23.648Z,13.45
2017-04-11T13:27:34.665Z,13.42
2017-04-11T13:28:45.877Z,13.28
2017-04-11T13:29:56.892Z,13.24
2017-04-11T13:31:07.892Z,13.29
2017-04-11T13:32:18.888Z,13.32
2017-04-11T13:33:29.896Z,13.27
2017-04-11T13:34:40.910Z,13.29
2017-04-11T13:35:52.313Z,13.37
2017-04-11T13:37:03.562Z,13.37
2017-04-11T13:38:14.832Z,13.39
2017-04-11T13:39:25.863Z,13.4
2017-04-11T13:40:36.887Z,13.28
2017-04-11T13:41:48.108Z,13.37
2017-04-11T13:42:59.112Z,13.42
2017-04-11T13:44:10.124Z,13.44
2017-04-11T13:45:21.133Z,13.45
2017-04-11T13:46:32.140Z,13.45
2017-04-11T13:47:43.144Z,13.47
2017-04-11T13:48:54.551Z,13.45
2017-04-11T13:50:05.554Z,13.47
2017-04-11T13:51:16.572Z,13.45
2017-04-11T13:52:27.589Z,13.45
2017-04-11T13:53:38.645Z,13.48
2017-04-11T13:54:49.648Z,13.6
2017-04-11T13:56:00.651Z,13.57
2017-04-11T13:57:11.653Z,13.7
2017-04-11T13:58:22.652Z,13.62
2017-04-11T13:59:33.864Z,13.57
2017-04-11T14:00:44.882Z,13.53
2017-04-11T14:01:55.888Z,13.54
2017-04-11T14:03:06.954Z,13.57
2017-04-11T14:04:17.969Z,13.58
2017-04-11T14:05:29.012Z,13.44
2017-04-11T14:06:40.207Z,13.58
2017-04-11T14:07:51.227Z,13.55
2017-04-11T14:09:02.436Z,13.65
2017-04-11T14:10:13.444Z,13.57
2017-04-11T14:11:24.455Z,13.57
2017-04-11T14:12:35.662Z,13.58
2017-04-11T14:13:46.663Z,13.57
2017-04-11T14:14:57.877Z,13.6
2017-04-11T14:16:08.897Z,13.55
2017-04-11T14:17:20.300Z,13.42
2017-04-11T14:18:31.554Z,13.47
2017-04-11T14:19:42.574Z,13.39
2017-04-11T14:20:53.578Z,13.39
2017-04-11T14:22:04.587Z,13.44
2017-04-11T14:23:15.596Z,13.39
2017-04-11T14:24:26.613Z,13.4
2017-04-11T14:25:37.612Z,13.47
2017-04-11T14:26:48.614Z,13.45
2017-04-11T14:27:59.628Z,13.48
2017-04-11T14:29:10.884Z,13.45
2017-04-11T14:30:22.091Z,13.44
2017-04-11T14:31:33.099Z,13.44
2017-04-11T14:32:44.103Z,13.47
2017-04-11T14:33:55.105Z,13.36
2017-04-11T14:35:06.113Z,13.32
2017-04-11T14:36:17.120Z,13.35
2017-04-11T14:37:28.128Z,13.35
2017-04-11T14:38:39.132Z,13.27
2017-04-11T14:39:50.344Z,13.37
2017-04-11T14:41:01.553Z,13.44
2017-04-11T14:42:12.565Z,13.51
2017-04-11T14:43:23.567Z,13.4
2017-04-11T14:44:34.821Z,13.44
2017-04-11T14:45:45.823Z,13.48
2017-04-11T14:46:56.827Z,13.54
2017-04-11T14:48:08.051Z,13.44
2017-04-11T14:49:19.257Z,13.48
2017-04-11T14:50:30.261Z,13.45
2017-04-11T14:51:41.455Z,13.45
2017-04-11T14:52:52.460Z,13.48
2017-04-11T14:54:03.673Z,13.45
2017-04-11T14:55:14.885Z,13.44
2017-04-11T14:56:26.101Z,13.48
2017-04-11T14:57:37.121Z,13.45
2017-04-11T14:58:48.125Z,13.42
2017-04-11T14:59:59.369Z,13.47
2017-04-11T15:01:10.417Z,13.48
2017-04-11T15:02:21.415Z,13.45
2017-04-11T15:03:32.425Z,13.57
2017-04-11T15:04:43.442Z,13.53
2017-04-11T15:05:54.445Z,13.6
2017-04-11T15:07:05.653Z,13.6
2017-04-11T15:08:16.657Z,13.6
2017-04-11T15:09:28.090Z,13.57
2017-04-11T15:10:39.118Z,13.57
2017-04-11T15:11:50.128Z,13.69
2017-04-11T15:13:01.344Z,13.79
2017-04-11T15:14:12.756Z,13.81
2017-04-11T15:15:23.782Z,13.84
2017-04-11T15:16:34.797Z,13.78
2017-04-11T15:17:45.815Z,13.84
2017-04-11T15:18:56.832Z,13.73
2017-04-11T15:20:08.113Z,13.81
2017-04-11T15:21:19.123Z,13.76
2017-04-11T15:22:30.337Z,13.76
2017-04-11T15:23:41.346Z,13.81
2017-04-11T15:24:52.342Z,13.86
2017-04-11T15:26:03.354Z,13.83
2017-04-11T15:27:14.556Z,13.84
2017-04-11T15:28:25.758Z,13.88
2017-04-11T15:29:36.758Z,13.94
2017-04-11T15:30:47.970Z,13.79
2017-04-11T15:31:58.971Z,13.83
2017-04-11T15:33:09.983Z,13.81
2017-04-11T15:34:20.992Z,13.84
2017-04-11T15:35:32.001Z,13.79